Snyder, Oklahoma
Current Conditions -  °F | °C
As of 5:58 PM on Monday 22 Dec 2014 (Local Time) from KLTS Reporting Station
Broken Clouds Broken Clouds  
Wind Chill: 54°   Ceiling: 10000
Heat Index: 54°   Visibility: 10mi
Dew Point: 33°   Wind: 12mph
Humidity: 45%   Direction: 340°NNW
Pressure: 29.65"   Gusts: NA
Location:  34.66°N, 98.95°W
Report Text: KLTS 222358Z AUTO 34010KT 10SM BKN100 BKN140 12/01 A2965 RMK AO2 SLP041 T01200005 10154 20120 53001 $
Loading
Personal Weather Stations






























Interactive Weather Map New forecast layout! Learn more

10-Day Weather Forecast

Advertisements
Track Severe Weather on mobile